createdAt,value
2019-03-06T00:00:41.585Z,4.00
2019-03-06T00:05:44.821Z,4.00
2019-03-06T00:10:48.048Z,4.10
2019-03-06T00:15:52.189Z,4.30
2019-03-06T00:20:55.625Z,4.00
2019-03-06T00:25:59.298Z,3.90
2019-03-06T00:31:03.755Z,3.80
2019-03-06T00:36:13.548Z,3.70
2019-03-06T00:41:22.140Z,3.80
2019-03-06T00:46:25.500Z,3.90
2019-03-06T00:51:30.443Z,3.90
2019-03-06T00:56:34.824Z,4.00
2019-03-06T01:01:38.202Z,4.00
2019-03-06T01:06:41.631Z,4.00
2019-03-06T01:11:45.455Z,4.00
2019-03-06T01:16:49.562Z,3.90
2019-03-06T01:21:54.039Z,4.00
2019-03-06T01:26:57.800Z,3.90
2019-03-06T01:32:01.848Z,3.90
2019-03-06T01:37:20.736Z,3.90
2019-03-06T01:42:30.035Z,4.00
2019-03-06T01:47:33.395Z,5.70
2019-03-06T01:52:36.962Z,4.00
2019-03-06T01:57:40.606Z,4.00
2019-03-06T02:02:44.237Z,4.00
2019-03-06T02:07:48.080Z,4.00
2019-03-06T02:12:51.796Z,4.00
2019-03-06T02:17:55.385Z,4.00
2019-03-06T02:22:58.741Z,4.00
2019-03-06T02:28:03.165Z,4.00
2019-03-06T02:33:09.791Z,4.00
2019-03-06T02:38:13.488Z,4.00
2019-03-06T02:43:17.596Z,3.90
2019-03-06T02:48:21.608Z,3.90
2019-03-06T02:53:25.203Z,3.80
2019-03-06T02:58:38.525Z,3.70
2019-03-06T03:04:04.464Z,3.60
2019-03-06T03:09:16.423Z,3.60
2019-03-06T03:14:19.673Z,3.60
2019-03-06T03:19:23.979Z,3.50
2019-03-06T03:24:30.097Z,3.50
2019-03-06T03:29:33.558Z,3.50
2019-03-06T03:34:37.411Z,3.60
2019-03-06T03:39:41.806Z,3.50
2019-03-06T03:44:45.100Z,3.50
2019-03-06T03:49:48.910Z,3.40
2019-03-06T03:55:12.786Z,3.40
2019-03-06T04:00:16.552Z,5.10
2019-03-06T04:05:20.913Z,3.50
2019-03-06T04:10:24.248Z,3.50
2019-03-06T04:15:28.403Z,3.40
2019-03-06T04:20:33.146Z,3.50
2019-03-06T04:25:36.495Z,3.40
2019-03-06T04:30:39.834Z,3.50
2019-03-06T04:35:43.164Z,3.50
2019-03-06T04:40:46.430Z,3.50
2019-03-06T04:45:49.767Z,3.40
2019-03-06T04:50:53.314Z,3.30
2019-03-06T04:55:56.739Z,3.30
2019-03-06T05:01:00.078Z,3.30
2019-03-06T05:06:04.007Z,3.20
2019-03-06T05:11:07.493Z,3.20
2019-03-06T05:16:11.140Z,3.00
2019-03-06T05:21:16.995Z,2.90
2019-03-06T05:26:20.764Z,2.90
2019-03-06T05:31:25.303Z,2.90
2019-03-06T05:37:23.922Z,3.00
2019-03-06T05:42:27.395Z,3.00
2019-03-06T05:47:30.742Z,2.90
2019-03-06T05:52:34.634Z,3.00
2019-03-06T05:57:38.981Z,3.20
2019-03-06T06:02:42.739Z,4.70
2019-03-06T06:07:46.185Z,3.10
2019-03-06T06:12:50.603Z,3.10
2019-03-06T06:17:53.953Z,3.20
2019-03-06T06:23:26.121Z,3.20
2019-03-06T06:28:29.370Z,3.20
2019-03-06T06:33:32.779Z,3.30
2019-03-06T06:38:37.493Z,3.40
2019-03-06T06:43:41.225Z,3.50
2019-03-06T06:48:45.090Z,3.60
2019-03-06T06:54:08.901Z,3.50
2019-03-06T06:59:45.618Z,3.40
2019-03-06T07:05:17.336Z,3.50
2019-03-06T07:10:58.129Z,3.70
2019-03-06T07:16:19.807Z,4.00
2019-03-06T07:21:32.215Z,4.30
2019-03-06T07:26:58.399Z,4.50
2019-03-06T07:32:21.550Z,4.80
2019-03-06T07:37:42.118Z,4.80
2019-03-06T07:42:56.459Z,4.80
2019-03-06T07:48:17.888Z,4.90
2019-03-06T07:54:12.947Z,4.90
2019-03-06T07:59:16.610Z,5.00
2019-03-06T08:04:20.708Z,5.40
2019-03-06T08:09:25.518Z,5.50
2019-03-06T08:14:48.215Z,5.80
2019-03-06T08:20:30.135Z,5.90
2019-03-06T08:25:43.577Z,5.80
2019-03-06T08:30:51.073Z,6.20
2019-03-06T08:35:55.548Z,6.20
2019-03-06T08:41:04.242Z,6.60
2019-03-06T08:46:33.181Z,6.70
2019-03-06T08:51:43.054Z,6.90
2019-03-06T08:57:08.961Z,6.20
2019-03-06T09:02:38.788Z,6.30
2019-03-06T09:08:04.515Z,6.60
2019-03-06T09:13:26.362Z,7.00
2019-03-06T09:18:56.294Z,7.40
2019-03-06T09:24:28.237Z,7.30
2019-03-06T09:30:05.046Z,7.20
2019-03-06T09:35:46.356Z,7.20
2019-03-06T09:41:09.593Z,7.40
2019-03-06T09:46:29.003Z,7.70
2019-03-06T09:51:51.848Z,8.00
2019-03-06T09:57:14.225Z,8.20
2019-03-06T10:02:43.407Z,7.90
2019-03-06T10:07:52.241Z,8.70
2019-03-06T10:13:09.505Z,8.50
2019-03-06T10:18:37.816Z,8.60
2019-03-06T10:23:41.442Z,9.10
2019-03-06T10:28:44.856Z,9.20
2019-03-06T10:33:48.927Z,9.10
2019-03-06T10:38:52.419Z,9.40
2019-03-06T10:43:56.008Z,9.40
2019-03-06T10:48:59.560Z,8.00
2019-03-06T10:54:03.315Z,10.50
2019-03-06T10:59:07.808Z,10.10
2019-03-06T11:04:29.851Z,9.80
2019-03-06T11:09:33.470Z,9.50
2019-03-06T11:14:39.893Z,9.20
2019-03-06T11:19:43.337Z,9.10
2019-03-06T11:24:46.860Z,9.50
2019-03-06T11:29:50.184Z,9.70
2019-03-06T11:34:54.173Z,9.70
2019-03-06T11:39:58.084Z,9.60
2019-03-06T11:45:02.303Z,10.00
2019-03-06T11:50:07.265Z,10.00
2019-03-06T11:55:11.515Z,10.10
2019-03-06T12:00:29.292Z,11.00
2019-03-06T12:05:34.657Z,11.70
2019-03-06T12:10:39.197Z,11.90
2019-03-06T12:15:45.992Z,11.50
2019-03-06T12:20:50.069Z,11.60
2019-03-06T12:25:55.553Z,12.10
2019-03-06T12:30:59.837Z,12.00
2019-03-06T12:36:03.358Z,11.20
2019-03-06T12:41:06.808Z,11.10
2019-03-06T12:46:24.532Z,11.30
2019-03-06T12:51:28.840Z,11.90
2019-03-06T12:56:46.046Z,11.70
2019-03-06T13:01:50.145Z,12.30
2019-03-06T13:06:53.714Z,12.90
2019-03-06T13:11:58.234Z,13.40
2019-03-06T13:17:01.766Z,13.60
2019-03-06T13:22:11.118Z,13.50
2019-03-06T13:27:11.598Z,13.50
2019-03-06T13:32:15.397Z,13.60
2019-03-06T13:37:18.943Z,13.60
2019-03-06T13:42:23.028Z,13.90
2019-03-06T13:47:26.663Z,13.60
2019-03-06T13:52:30.885Z,13.40
2019-03-06T13:57:34.711Z,13.00
2019-03-06T14:02:38.151Z,12.80
2019-03-06T14:12:46.112Z,12.40
2019-03-06T14:17:50.031Z,12.50
2019-03-06T14:22:53.335Z,12.10
2019-03-06T14:27:58.213Z,12.00
2019-03-06T14:33:01.526Z,11.80
2019-03-06T14:38:06.918Z,11.60
2019-03-06T14:43:10.701Z,11.60
2019-03-06T14:48:14.188Z,11.40
2019-03-06T14:53:18.305Z,11.40
2019-03-06T14:58:22.113Z,11.40
2019-03-06T15:03:25.452Z,11.40
2019-03-06T15:08:29.708Z,11.50
2019-03-06T15:13:33.020Z,11.60
2019-03-06T15:18:36.328Z,11.30
2019-03-06T15:23:39.850Z,11.10
2019-03-06T15:28:43.216Z,11.00
2019-03-06T15:33:46.816Z,11.00
2019-03-06T15:38:52.091Z,11.70
2019-03-06T15:43:55.755Z,11.60
2019-03-06T15:48:59.102Z,14.40
2019-03-06T15:54:03.494Z,18.00
2019-03-06T15:59:14.617Z,19.20
2019-03-06T16:04:13.314Z,19.50
2019-03-06T16:09:16.932Z,18.10
2019-03-06T16:14:21.520Z,13.40
2019-03-06T16:19:24.993Z,11.50
2019-03-06T16:24:29.212Z,11.70
2019-03-06T16:29:33.577Z,9.80
2019-03-06T16:34:37.096Z,9.80
2019-03-06T16:39:41.017Z,8.70
2019-03-06T16:44:44.644Z,8.70
2019-03-06T16:49:49.870Z,8.50
2019-03-06T16:54:54.483Z,8.20
2019-03-06T16:59:57.975Z,8.00
2019-03-06T17:05:04.418Z,7.80
2019-03-06T17:10:08.081Z,7.70
2019-03-06T17:15:12.723Z,7.60
2019-03-06T17:20:19.160Z,7.60
2019-03-06T17:25:23.290Z,7.50
2019-03-06T17:30:27.380Z,7.60
2019-03-06T17:35:31.852Z,7.50
2019-03-06T17:40:35.989Z,7.50
2019-03-06T17:45:39.609Z,7.40
2019-03-06T17:50:43.067Z,7.40
2019-03-06T17:55:47.082Z,7.30
2019-03-06T18:00:53.593Z,7.20
2019-03-06T18:05:58.545Z,7.20
2019-03-06T18:11:02.228Z,7.10
2019-03-06T18:16:05.932Z,7.20
2019-03-06T18:21:09.404Z,7.10
2019-03-06T18:26:12.846Z,7.10
2019-03-06T18:31:17.820Z,7.00
2019-03-06T18:36:21.987Z,7.00
2019-03-06T18:41:25.349Z,7.00
2019-03-06T18:46:28.916Z,7.00
2019-03-06T18:51:32.288Z,6.90
2019-03-06T18:56:35.952Z,6.80
2019-03-06T19:01:40.699Z,6.80
2019-03-06T19:06:44.442Z,6.70
2019-03-06T19:11:48.540Z,6.60
2019-03-06T19:16:52.353Z,6.60
2019-03-06T19:21:55.822Z,6.50
2019-03-06T19:27:00.307Z,6.50
2019-03-06T19:32:03.831Z,6.50
2019-03-06T19:37:07.599Z,6.40
2019-03-06T19:42:11.112Z,6.40
2019-03-06T19:47:14.449Z,6.40
2019-03-06T19:52:18.570Z,6.30
2019-03-06T19:57:23.232Z,6.20
2019-03-06T20:02:28.511Z,6.10
2019-03-06T20:07:31.875Z,6.20
2019-03-06T20:12:35.171Z,6.10
2019-03-06T20:17:38.569Z,5.90
2019-03-06T20:22:42.309Z,5.90
2019-03-06T20:27:45.963Z,5.80
2019-03-06T20:32:49.302Z,5.80
2019-03-06T20:37:52.900Z,5.90
2019-03-06T20:42:56.253Z,5.70
2019-03-06T20:48:03.310Z,5.90
2019-03-06T20:53:07.415Z,5.90
2019-03-06T20:58:10.690Z,5.90
2019-03-06T21:03:14.653Z,5.90
2019-03-06T21:08:18.201Z,6.10
2019-03-06T21:13:21.927Z,6.10
2019-03-06T21:18:27.251Z,6.40
2019-03-06T21:43:45.654Z,6.60
2019-03-06T21:48:49.536Z,6.40
2019-03-06T21:58:56.388Z,6.10
2019-03-06T22:04:00.113Z,6.10
2019-03-06T22:09:10.430Z,5.90
2019-03-06T22:14:13.755Z,5.90
2019-03-06T22:19:17.899Z,5.80
2019-03-06T22:24:21.232Z,5.70
2019-03-06T22:29:24.889Z,5.70
2019-03-06T22:34:28.468Z,5.70
2019-03-06T22:39:31.799Z,7.50
2019-03-06T22:44:35.229Z,5.60
2019-03-06T22:49:38.560Z,5.60
2019-03-06T22:54:42.820Z,5.50
2019-03-06T22:59:46.249Z,5.40
2019-03-06T23:04:49.569Z,5.30
2019-03-06T23:09:52.909Z,5.40
2019-03-06T23:14:56.347Z,5.40
2019-03-06T23:20:00.361Z,5.60
2019-03-06T23:25:04.159Z,5.30
2019-03-06T23:30:09.026Z,5.30
2019-03-06T23:35:13.148Z,5.30
2019-03-06T23:40:18.941Z,5.30
2019-03-06T23:45:22.253Z,5.20
2019-03-06T23:50:25.584Z,5.20
2019-03-06T23:55:29.609Z,5.20
